Havering, United Kingdom
Current Conditions -  °F | °C
As of 7:20 AM on Thursday 18 Dec 2014 (Local Time) from EGLC Reporting Station
Broken Clouds Broken Clouds  
Wind Chill: 13°   Ceiling: 1600
Heat Index: 13°   Visibility: 6mi
Dew Point: 11°   Wind: 18mph
Humidity: 88%   Direction: 250°WSW
Pressure: 29.8"   Gusts: NA
Location:  51.56°N, 0.24°E
Report Text: EGLC 180720Z 25016KT 9999 FEW012 BKN016 13/11 Q1009
Loading
Personal Weather Stations






























Interactive Weather Map New forecast layout! Learn more

10-Day Weather Forecast

Advertisements
Track Severe Weather on mobile